HTAT2: Little Wichita River abv Henrietta 3W

                                SHEF ID:       HTAT2     Little Wichita Rv abv Henrietta,
STATION TYPE:

PRECIP STAGE RIV-FLOW BAT-LOAD
in ft cfs volt
Ccp-Rev Ccp-Rev Ccp-Rev Ccp-Rev
(America/Chicago)
04/26 00:00 ---- 10.82 183 12.49
04/26 01:00 ---- 11.42 226 12.49
04/26 02:00 ---- 11.94 265 12.49
04/26 03:00 ---- 12.41 301 12.49
04/26 04:00 ---- 12.87 338 12.49
04/26 05:00 ---- 13.30 374 12.41
04/26 06:00 ---- 13.67 405 12.41
04/26 07:00 ---- 14.02 438 12.41
04/26 08:00 ---- 14.36 471 12.41
04/26 09:00 ---- 14.65 500 12.49
04/26 10:00 ---- 14.90 525 12.73
04/26 11:00 ---- 15.13 549 12.81
04/26 12:00 ---- 15.34 570 12.89
04/26 13:00 ---- 15.49 586 13.13
04/26 14:00 ---- 15.60 598 13.05
04/26 15:00 ---- 15.68 607 13.21
04/26 16:00 ---- 15.75 614 13.05
04/26 17:00 ---- 15.79 618 13.05
04/26 18:00 ---- 15.82 622 12.81
04/26 19:00 ---- 15.82 622 12.73
04/26 20:00 ---- 15.81 620 12.65
04/26 21:00 ---- 15.79 618 12.57
04/26 22:00 ---- 15.75 614 12.57
04/26 23:00 ---- 15.73 612 12.57
Data processed at Mon 27Apr2026 04:37 GMT

NOTICE: If you are parsing this page

Please convert to using our Data API. Starting early 2026 we will be migrating to: https://water.usace.army.mil with modern pages rendered in JavaScript. When this migration completes you will no longer be able to scrape this page! CWMSDataAPI (CDA)

Timeseries IDs (TSIDs)

TSIDs used from left to right in the data table
HENR.Precip-Inc.Total.1Hour.1Hour.Ccp-Rev
HENR.Stage.Inst.1Hour.0.Ccp-Rev
HENR.Flow.Inst.1Hour.0.Ccp-Rev
HENR.Volt-Battery Load.Inst.1Hour.0.Ccp-Rev

                            

All information presented herein is the property of the government of the United States of America and may be revised or deleted at any time without prior notice. Dissemination of this information without the expressed written consent of the Public Affairs Office, Tulsa District U.S. Army Corps of Engineers is strictly prohibited. These data are gathered electronically and, as presented, have NOT undergone any form of quality control. These data are NOT guaranteed to be valid or correct.